ABX weather

Albury Airport
Albury, New South Wales, Australia

Public forecast

Using degrees Celsius for public forecast. Weather courtesy of forecast.io.

METAR (pilot weather report)

Retrieved 2019/01/22 12:00 UTC (32 minutes ago):

YMAY 221200Z AUTO 15001KT 9999 // NCD 28/19 Q1009

TAF (pilot weather forecast)

Forecast is more than 6 hours old.

Closest forecast is Wangaratta Airport, 37.8 nm (70.0 km) WSW. Retrieved 2019/01/22 02:03 UTC (10 hours ago):

TAF YWGT 220027Z 2202/2214 36008KT CAVOK FM220300 27012KT CAVOK BECMG 2208/2210 VRB05KT CAVOK